Flugplatz Leck

Für EDXK sind keine METAR/TAF Berichte vorhanden.
Es werden die Flugwettermeldungen vom Flugplatz Westerland Sylt in 41 km Entfernung angezeigt.

Bericht für EDXW

vom 31.05. um 03:50 UTC

Wind 7 kt aus 80°

Sichtweite 10 km oder mehr

aufgebrochene Bewölkung in 21000 ft

Temperatur 11.0°C

Taupunkt 9.0°C

Luftfeuchtigkeit 87%

Luftdruck 1027 hPa

EDXW 310350Z AUTO 08007KT 9999 // BKN210/// 11/09 Q1027
Keine Prognose (TAF) verfügbar.
Impressum